Terminal Aerodrome Forecast
Issued by NWS

Home | Current Version | Previous Version | Graphics & Text | Print | Product List | Glossary On
Versions: 1 2 3 4 5 6 7 8 9 10 11 12 13
000
FTUS43 KFGF 161134
TAFBJI
TAF
KBJI 161134Z 1612/1712 21004KT P6SM FEW250
     FM161500 20009KT P6SM FEW250
     FM161700 20015KT P6SM FEW250
     FM170000 22008KT P6SM SKC
     FM170300 25006KT P6SM SKC=

USA.gov is the U.S. government's official web portal to all federal, state and local government web resources and services.